createdAt,value
2023-05-14T00:02:34.305Z,99203.20
2023-05-14T00:07:37.308Z,99200.46
2023-05-14T00:12:54.257Z,99195.21
2023-05-14T00:18:21.434Z,99192.68
2023-05-14T00:24:11.092Z,99189.33
2023-05-14T00:29:32.438Z,99186.20
2023-05-14T00:34:48.193Z,99175.11
2023-05-14T00:39:55.435Z,99173.79
2023-05-14T00:45:03.760Z,99177.30
2023-05-14T00:50:21.561Z,99187.38
2023-05-14T00:55:33.053Z,99188.33
2023-05-14T01:00:36.256Z,99188.11
2023-05-14T01:06:00.912Z,99190.73
2023-05-14T01:11:52.835Z,99190.09
2023-05-14T01:17:11.826Z,99191.70
2023-05-14T01:22:19.764Z,99188.02
2023-05-14T01:27:23.488Z,99186.08
2023-05-14T01:32:35.841Z,99189.61
2023-05-14T01:37:49.705Z,99188.34
2023-05-14T01:43:12.407Z,99190.84
2023-05-14T01:48:22.753Z,99185.17
2023-05-14T01:53:25.275Z,99183.15
2023-05-14T01:58:38.021Z,99176.82
2023-05-14T02:03:40.295Z,99176.30
2023-05-14T02:08:51.770Z,99173.27
2023-05-14T02:13:54.511Z,99167.14
2023-05-14T02:18:59.844Z,99168.79
2023-05-14T02:24:02.293Z,99168.16
2023-05-14T02:29:08.559Z,99161.61
2023-05-14T02:34:42.775Z,99155.00
2023-05-14T02:40:37.933Z,99151.74
2023-05-14T02:46:00.502Z,99148.14
2023-05-14T02:51:26.863Z,99144.16
2023-05-14T02:56:44.694Z,99135.75
2023-05-14T03:02:19.584Z,99135.26
2023-05-14T03:07:39.291Z,99132.34
2023-05-14T03:13:20.860Z,99120.55
2023-05-14T03:18:41.386Z,99119.96
2023-05-14T03:23:53.769Z,99122.28
2023-05-14T03:28:58.622Z,99116.48
2023-05-14T03:34:01.376Z,99118.64
2023-05-14T03:39:23.865Z,99117.84
2023-05-14T03:44:54.676Z,99115.66
2023-05-14T03:50:11.920Z,99115.95
2023-05-14T03:55:26.400Z,99116.90
2023-05-14T04:00:57.716Z,99116.14
2023-05-14T04:06:05.197Z,99114.84
2023-05-14T04:11:38.995Z,99120.96
2023-05-14T04:17:20.744Z,99122.55
2023-05-14T04:23:07.854Z,99119.48
2023-05-14T04:28:55.616Z,99115.64
2023-05-14T04:34:32.260Z,99112.67
2023-05-14T04:39:47.219Z,99104.67
2023-05-14T04:45:08.645Z,99105.77
2023-05-14T04:50:46.972Z,99104.92
2023-05-14T04:55:49.213Z,99106.45
2023-05-14T05:01:03.685Z,99108.83
2023-05-14T05:06:07.842Z,99106.80
2023-05-14T05:11:13.292Z,99105.69
2023-05-14T05:16:15.800Z,99099.55
2023-05-14T05:21:18.726Z,99105.95
2023-05-14T05:26:26.838Z,99101.23
2023-05-14T05:31:39.456Z,99099.94
2023-05-14T05:36:41.381Z,99101.73
2023-05-14T05:41:49.328Z,99093.65
2023-05-14T05:46:58.165Z,99095.95
2023-05-14T05:52:06.483Z,99101.11
2023-05-14T05:57:18.848Z,99104.17
2023-05-14T06:02:21.227Z,99106.58
2023-05-14T06:07:25.828Z,99097.15
2023-05-14T06:12:40.679Z,99089.16
2023-05-14T06:17:43.034Z,99091.16
2023-05-14T06:22:48.172Z,99081.64
2023-05-14T06:27:50.474Z,99085.64
2023-05-14T06:32:53.235Z,99081.63
2023-05-14T06:37:55.364Z,99078.72
2023-05-14T06:42:58.264Z,99083.27
2023-05-14T06:48:10.660Z,99081.56
2023-05-14T06:53:16.814Z,99088.45
2023-05-14T06:58:34.506Z,99080.09
2023-05-14T07:03:36.731Z,99071.73
2023-05-14T07:08:38.854Z,99075.77
2023-05-14T07:13:41.928Z,99072.13
2023-05-14T07:18:45.578Z,99076.96
2023-05-14T07:23:47.977Z,99077.45
2023-05-14T07:28:50.533Z,99076.67
2023-05-14T07:34:11.820Z,99083.31
2023-05-14T07:39:13.909Z,99081.09
2023-05-14T07:44:16.422Z,99077.86
2023-05-14T07:49:18.830Z,99073.52
2023-05-14T07:54:26.744Z,99066.27
2023-05-14T07:59:48.781Z,99061.65
2023-05-14T08:04:52.239Z,99049.06
2023-05-14T08:09:54.195Z,99040.98
2023-05-14T08:14:57.057Z,99032.38
2023-05-14T08:19:59.063Z,99028.01
2023-05-14T08:25:03.582Z,99021.55
2023-05-14T08:30:07.518Z,99013.37
2023-05-14T08:35:19.468Z,99010.06
2023-05-14T08:40:22.224Z,99006.25
2023-05-14T08:45:34.519Z,99003.18
2023-05-14T08:50:49.278Z,98999.61
2023-05-14T08:55:54.850Z,98991.98
2023-05-14T09:00:57.509Z,98985.45
2023-05-14T09:06:04.948Z,98977.77
2023-05-14T09:11:07.200Z,98981.39
2023-05-14T09:16:10.060Z,98979.75
2023-05-14T09:21:16.127Z,98977.45
2023-05-14T09:26:26.252Z,98980.33
2023-05-14T09:31:33.269Z,98983.06
2023-05-14T09:36:35.996Z,98979.70
2023-05-14T09:41:43.193Z,98976.44
2023-05-14T09:46:50.875Z,98970.36
2023-05-14T09:51:58.224Z,98964.80
2023-05-14T09:57:01.032Z,98956.55
2023-05-14T10:02:22.278Z,98950.63
2023-05-14T10:07:58.336Z,98941.73
2023-05-14T10:13:05.691Z,98930.77
2023-05-14T10:18:12.574Z,98923.14
2023-05-14T10:23:17.977Z,98918.28
2023-05-14T10:28:29.910Z,98908.31
2023-05-14T10:33:47.191Z,98900.42
2023-05-14T10:38:57.322Z,98890.48
2023-05-14T10:43:59.718Z,98895.04
2023-05-14T10:49:03.150Z,98892.96
2023-05-14T10:54:08.931Z,98888.19
2023-05-14T10:59:12.320Z,98883.98
2023-05-14T11:04:24.188Z,98884.64
2023-05-14T11:09:29.356Z,98879.60
2023-05-14T11:14:31.863Z,98878.53
2023-05-14T11:19:34.412Z,98872.27
2023-05-14T11:24:36.551Z,98866.62
2023-05-14T11:29:48.900Z,98867.11
2023-05-14T11:34:54.117Z,98862.45
2023-05-14T11:40:00.112Z,98868.28
2023-05-14T11:45:02.847Z,98858.31
2023-05-14T11:50:09.762Z,98854.88
2023-05-14T11:55:18.489Z,98847.85
2023-05-14T12:00:25.227Z,98828.56
2023-05-14T12:05:30.040Z,98824.52
2023-05-14T12:10:42.521Z,98821.88
2023-05-14T12:15:47.110Z,98817.64
2023-05-14T12:20:51.255Z,98811.27
2023-05-14T12:25:53.266Z,98807.55
2023-05-14T12:30:57.606Z,98799.39
2023-05-14T12:41:09.044Z,98788.10
2023-05-14T12:46:11.071Z,98784.94
2023-05-14T12:51:13.904Z,98783.37
2023-05-14T12:56:16.540Z,98771.20
2023-05-14T13:01:41.195Z,98760.98
2023-05-14T13:06:53.400Z,98754.27
2023-05-14T13:12:03.589Z,98750.56
2023-05-14T13:17:08.747Z,98752.58
2023-05-14T13:22:14.476Z,98747.15
2023-05-14T13:27:16.559Z,98737.72
2023-05-14T13:32:19.046Z,98733.85
2023-05-14T13:37:21.153Z,98724.99
2023-05-14T13:42:23.773Z,98721.39
2023-05-14T13:47:28.968Z,98714.67
2023-05-14T13:52:34.624Z,98700.08
2023-05-14T13:57:37.637Z,98681.82
2023-05-14T14:02:42.611Z,98678.52
2023-05-14T14:07:50.465Z,98685.34
2023-05-14T14:12:55.821Z,98679.45
2023-05-14T14:17:57.791Z,98670.66
2023-05-14T14:23:00.189Z,98654.24
2023-05-14T14:28:05.492Z,98648.29
2023-05-14T14:33:07.834Z,98650.73
2023-05-14T14:38:10.410Z,98644.70
2023-05-14T14:43:21.741Z,98635.02
2023-05-14T14:48:37.451Z,98623.24
2023-05-14T14:53:40.801Z,98615.09
2023-05-14T14:58:42.952Z,98599.48
2023-05-14T15:03:45.944Z,98585.34
2023-05-14T15:08:48.364Z,98574.42
2023-05-14T15:13:50.761Z,98578.66
2023-05-14T15:18:58.855Z,98577.34
2023-05-14T15:24:04.581Z,98571.27
2023-05-14T15:29:06.543Z,98571.11
2023-05-14T15:34:11.576Z,98561.15
2023-05-14T15:39:13.976Z,98552.08
2023-05-14T15:44:19.532Z,98548.89
2023-05-14T15:49:23.903Z,98543.38
2023-05-14T15:54:27.719Z,98541.06
2023-05-14T15:59:30.695Z,98530.48
2023-05-14T16:04:32.646Z,98522.48
2023-05-14T16:09:35.155Z,98519.08
2023-05-14T16:14:38.307Z,98512.46
2023-05-14T16:19:41.277Z,98514.10
2023-05-14T16:24:44.887Z,98508.73
2023-05-14T16:29:53.084Z,98509.21
2023-05-14T16:34:58.222Z,98502.66
2023-05-14T16:40:00.301Z,98503.36
2023-05-14T16:45:02.892Z,98505.79
2023-05-14T16:50:06.158Z,98520.08
2023-05-14T16:55:09.300Z,98523.45
2023-05-14T17:00:12.184Z,98512.20
2023-05-14T17:05:15.008Z,98491.42
2023-05-14T17:10:26.812Z,98486.67
2023-05-14T17:15:29.573Z,98480.88
2023-05-14T17:20:31.606Z,98477.31
2023-05-14T17:25:33.847Z,98470.46
2023-05-14T17:30:35.814Z,98461.05
2023-05-14T17:35:38.057Z,98460.34
2023-05-14T17:40:40.918Z,98464.24
2023-05-14T17:45:53.884Z,98469.15
2023-05-14T17:51:00.016Z,98499.55
2023-05-14T17:56:02.914Z,98520.09
2023-05-14T18:01:06.183Z,98526.61
2023-05-14T18:06:08.751Z,98542.77
2023-05-14T18:11:11.027Z,98552.91
2023-05-14T18:16:13.494Z,98553.50
2023-05-14T18:21:16.078Z,98562.65
2023-05-14T18:26:22.241Z,98558.89
2023-05-14T18:31:27.975Z,98549.13
2023-05-14T18:36:30.629Z,98539.14
2023-05-14T18:41:32.797Z,98535.94
2023-05-14T18:46:34.812Z,98533.65
2023-05-14T18:51:36.803Z,98534.02
2023-05-14T18:56:41.798Z,98534.84
2023-05-14T19:01:44.385Z,98536.29
2023-05-14T19:06:47.072Z,98540.34
2023-05-14T19:11:49.235Z,98547.60
2023-05-14T19:17:02.690Z,98549.89
2023-05-14T19:22:05.309Z,98559.15
2023-05-14T19:27:12.936Z,98562.48
2023-05-14T19:32:17.958Z,98567.04
2023-05-14T19:37:20.414Z,98570.91
2023-05-14T19:42:24.937Z,98567.95
2023-05-14T19:47:33.388Z,98569.02
2023-05-14T19:52:42.806Z,98572.67
2023-05-14T19:57:50.912Z,98576.25
2023-05-14T20:03:00.002Z,98574.75
2023-05-14T20:08:06.663Z,98570.89
2023-05-14T20:13:08.733Z,98565.69
2023-05-14T20:18:11.245Z,98559.34
2023-05-14T20:23:13.112Z,98548.09
2023-05-14T20:28:16.324Z,98531.68
2023-05-14T20:33:18.412Z,98513.25
2023-05-14T20:38:21.848Z,98497.68
2023-05-14T20:43:24.167Z,98474.69
2023-05-14T20:48:26.455Z,98453.73
2023-05-14T20:53:28.844Z,98439.06
2023-05-14T20:58:31.318Z,98413.86
2023-05-14T21:03:34.700Z,98391.25
2023-05-14T21:09:04.040Z,98381.34
2023-05-14T21:14:16.998Z,98375.36
2023-05-14T21:19:19.437Z,98358.69
2023-05-14T21:24:24.149Z,98355.23
2023-05-14T21:29:26.476Z,98349.89
2023-05-14T21:34:32.095Z,98353.81
2023-05-14T21:39:40.049Z,98349.69
2023-05-14T21:44:43.070Z,98341.46
2023-05-14T21:49:53.906Z,98334.05
2023-05-14T21:54:56.196Z,98317.64
2023-05-14T22:00:01.431Z,98302.45
2023-05-14T22:05:09.645Z,98299.59
2023-05-14T22:10:13.584Z,98296.73
2023-05-14T22:15:16.107Z,98289.53
2023-05-14T22:20:25.775Z,98285.38
2023-05-14T22:25:31.229Z,98276.63
2023-05-14T22:30:33.461Z,98270.60
2023-05-14T22:35:47.777Z,98260.05
2023-05-14T22:41:03.340Z,98269.73
2023-05-14T22:46:06.242Z,98270.71
2023-05-14T22:51:18.080Z,98260.16
2023-05-14T22:56:38.271Z,98238.60
2023-05-14T23:01:48.720Z,98218.72
2023-05-14T23:06:51.028Z,98209.80
2023-05-14T23:11:56.690Z,98207.34
2023-05-14T23:17:08.890Z,98198.45
2023-05-14T23:22:14.540Z,98190.37
2023-05-14T23:27:37.156Z,98190.20
2023-05-14T23:32:39.777Z,98181.91
2023-05-14T23:37:47.410Z,98181.66
2023-05-14T23:42:57.360Z,98178.31
2023-05-14T23:48:23.177Z,98168.80
2023-05-14T23:53:26.159Z,98151.89
2023-05-14T23:58:31.255Z,98145.69
